Observation data for Northfield on 12/09/2018      Previous  Date  Next       Current Mesonet Observations  Soil Data  Daily Summary Page  Observations in Plain Language
KNOR 090600Z 26005KT M05/M06 A3033 RMK A01 T10451057  RH  092%=      5-min Rain = 0
KNOR 090605Z 27004KT M04/M06 A3033 RMK A01 T10441056  RH  092%=      5-min Rain = 0
KNOR 090610Z 28003KT M04/M05 A3033 RMK A01 T10431054  RH  092%=      5-min Rain = 0
KNOR 090615Z 31003KT M04/M05 A3033 RMK A01 T10421054  RH  092%=      5-min Rain = 0
KNOR 090620Z 31003KT M04/M05 A3033 RMK A01 T10401053  RH  092%=      5-min Rain = 0
KNOR 090625Z 28003KT M04/M05 A3033 RMK A01 T10401053  RH  092%=      5-min Rain = 0
KNOR 090630Z 27002KT M04/M06 A3033 RMK A01 T10421055  RH  092%=      5-min Rain = 0
KNOR 090635Z 25003KT M04/M06 A3033 RMK A01 T10441057  RH  091%=      5-min Rain = 0
KNOR 090640Z 26003KT M05/M06 A3033 RMK A01 T10451058  RH  091%=      5-min Rain = 0
KNOR 090645Z 25003KT M05/M06 A3033 RMK A01 T10471061  RH  091%=      5-min Rain = 0
KNOR 090650Z 25004KT M05/M06 A3033 RMK A01 T10481061  RH  091%=      5-min Rain = 0
KNOR 090655Z 26004KT M05/M06 A3033 RMK A01 T10491062  RH  091%=      5-min Rain = 0
KNOR 090700Z 27003KT M05/M06 A3033 RMK A01 T10481062  RH  091%=      5-min Rain = 0
KNOR 090705Z 28003KT M05/M06 A3033 RMK A01 T10451059  RH  091%=      5-min Rain = 0
KNOR 090710Z 27004KT M05/M06 A3033 RMK A01 T10451060  RH  090%=      5-min Rain = 0
KNOR 090715Z 26004KT M05/M06 A3033 RMK A01 T10461063  RH  089%=      5-min Rain = 0
KNOR 090720Z 26005KT M05/M07 A3033 RMK A01 T10481065  RH  089%=      5-min Rain = 0
KNOR 090725Z 26005KT M05/M07 A3033 RMK A01 T10481066  RH  089%=      5-min Rain = 0
KNOR 090730Z 26005KT M05/M07 A3033 RMK A01 T10481065  RH  088%=      5-min Rain = 0
KNOR 090735Z 27004KT M05/M06 A3033 RMK A01 T10451064  RH  088%=      5-min Rain = 0
KNOR 090740Z 27004KT M04/M06 A3033 RMK A01 T10441064  RH  087%=      5-min Rain = 0
KNOR 090745Z 27004KT M04/M06 A3033 RMK A01 T10441064  RH  087%=      5-min Rain = 0
KNOR 090750Z 27004KT M04/M07 A3033 RMK A01 T10441065  RH  086%=      5-min Rain = 0
KNOR 090755Z 27003KT M04/M07 A3032 RMK A01 T10441065  RH  086%=      5-min Rain = 0
KNOR 090800Z 26004KT M04/M07 A3033 RMK A01 T10441066  RH  086%=      5-min Rain = 0
KNOR 090805Z 26004KT M05/M07 A3033 RMK A01 T10481070  RH  086%=      5-min Rain = 0
KNOR 090810Z 25005KT M05/M07 A3033 RMK A01 T10501071  RH  086%=      5-min Rain = 0
KNOR 090815Z 27004KT M05/M07 A3033 RMK A01 T10491069  RH  087%=      5-min Rain = 0
KNOR 090820Z 27004KT M05/M07 A3033 RMK A01 T10471068  RH  086%=      5-min Rain = 0
KNOR 090825Z 26005KT M05/M07 A3033 RMK A01 T10491070  RH  086%=      5-min Rain = 0
KNOR 090830Z 26005KT M05/M07 A3033 RMK A01 T10501071  RH  086%=      5-min Rain = 0
KNOR 090835Z 26004KT M05/M07 A3033 RMK A01 T10501071  RH  086%=      5-min Rain = 0
KNOR 090840Z 26005KT M05/M07 A3033 RMK A01 T10491070  RH  087%=      5-min Rain = 0
KNOR 090845Z 26005KT M05/M07 A3033 RMK A01 T10501070  RH  087%=      5-min Rain = 0
KNOR 090850Z 26005KT M05/M07 A3033 RMK A01 T10521072  RH  087%=      5-min Rain = 0
KNOR 090855Z 26004KT M05/M07 A3033 RMK A01 T10521071  RH  087%=      5-min Rain = 0
KNOR 090900Z 26004KT M05/M07 A3033 RMK A01 T10531072  RH  088%=      5-min Rain = 0
KNOR 090905Z 26005KT M05/M07 A3033 RMK A01 T10541073  RH  088%=      5-min Rain = 0
KNOR 090910Z 27004KT M06/M07 A3033 RMK A01 T10551073  RH  088%=      5-min Rain = 0
KNOR 090915Z 29004KT M06/M07 A3033 RMK A01 T10561073  RH  089%=      5-min Rain = 0
KNOR 090920Z 28004KT M06/M07 A3033 RMK A01 T10561073  RH  089%=      5-min Rain = 0
KNOR 090925Z 29004KT M06/M07 A3033 RMK A01 T10561072  RH  089%=      5-min Rain = 0
KNOR 090930Z 29004KT M06/M07 A3033 RMK A01 T10551071  RH  089%=      5-min Rain = 0
KNOR 090935Z 27003KT M06/M07 A3033 RMK A01 T10551072  RH  089%=      5-min Rain = 0
KNOR 090940Z 27003KT M06/M07 A3033 RMK A01 T10571073  RH  089%=      5-min Rain = 0
KNOR 090945Z 27003KT M06/M08 A3033 RMK A01 T10591076  RH  089%=      5-min Rain = 0
KNOR 090950Z 28003KT M06/M08 A3033 RMK A01 T10601077  RH  089%=      5-min Rain = 0
KNOR 090955Z 30003KT M06/M08 A3032 RMK A01 T10591075  RH  090%=      5-min Rain = 0
KNOR 091000Z 30004KT M06/M07 A3032 RMK A01 T10571072  RH  090%=      5-min Rain = 0
KNOR 091005Z 29004KT M06/M07 A3033 RMK A01 T10571073  RH  090%=      5-min Rain = 0
KNOR 091010Z 29004KT M06/M07 A3032 RMK A01 T10581074  RH  090%=      5-min Rain = 0
KNOR 091015Z 28004KT M06/M08 A3033 RMK A01 T10591075  RH  090%=      5-min Rain = 0
KNOR 091020Z 27005KT M06/M08 A3033 RMK A01 T10611077  RH  089%=      5-min Rain = 0
KNOR 091025Z 27005KT M06/M08 A3033 RMK A01 T10641080  RH  089%=      5-min Rain = 0
KNOR 091030Z 27004KT M06/M08 A3033 RMK A01 T10641080  RH  090%=      5-min Rain = 0
KNOR 091035Z 28005KT M06/M08 A3033 RMK A01 T10641080  RH  090%=      5-min Rain = 0
KNOR 091040Z 29005KT M06/M08 A3033 RMK A01 T10641079  RH  090%=      5-min Rain = 0
KNOR 091045Z 30005KT M06/M08 A3033 RMK A01 T10621077  RH  090%=      5-min Rain = 0
KNOR 091050Z 30005KT M06/M08 A3033 RMK A01 T10591075  RH  090%=      5-min Rain = 0
KNOR 091055Z 31005KT M06/M07 A3033 RMK A01 T10571074  RH  089%=      5-min Rain = 0
KNOR 091100Z 31004KT M05/M07 A3033 RMK A01 T10531071  RH  088%=      5-min Rain = 0
KNOR 091105Z 30004KT M05/M07 A3033 RMK A01 T10521072  RH  087%=      5-min Rain = 0
KNOR 091110Z 28004KT M05/M08 A3033 RMK A01 T10541075  RH  086%=      5-min Rain = 0
KNOR 091115Z 28004KT M06/M08 A3033 RMK A01 T10551076  RH  086%=      5-min Rain = 0
KNOR 091120Z 29004KT M06/M08 A3033 RMK A01 T10561076  RH  087%=      5-min Rain = 0
KNOR 091125Z 29003KT M06/M08 A3034 RMK A01 T10551075  RH  087%=      5-min Rain = 0
KNOR 091130Z 30004KT M05/M08 A3034 RMK A01 T10541075  RH  086%=      5-min Rain = 0
KNOR 091135Z 30003KT M05/M07 A3034 RMK A01 T10521074  RH  086%=      5-min Rain = 0
KNOR 091140Z 30002KT M05/M07 A3034 RMK A01 T10501073  RH  085%=      5-min Rain = 0
KNOR 091145Z 30003KT M05/M07 A3034 RMK A01 T10481072  RH  084%=      5-min Rain = 0
KNOR 091150Z 30003KT M05/M07 A3034 RMK A01 T10471073  RH  083%=      5-min Rain = 0
KNOR 091155Z 30003KT M05/M07 A3034 RMK A01 T10471073  RH  083%=      5-min Rain = 0
KNOR 091200Z 30003KT M05/M08 A3034 RMK A01 T10491076  RH  083%=      5-min Rain = 0
KNOR 091205Z 30003KT M05/M08 A3034 RMK A01 T10501076  RH  083%=      5-min Rain = 0
KNOR 091210Z 28003KT M05/M08 A3034 RMK A01 T10511076  RH  084%=      5-min Rain = 0
KNOR 091215Z 28003KT M05/M08 A3034 RMK A01 T10531077  RH  084%=      5-min Rain = 0
KNOR 091220Z 28003KT M05/M08 A3034 RMK A01 T10521075  RH  085%=      5-min Rain = 0
KNOR 091225Z 27003KT M05/M08 A3035 RMK A01 T10531075  RH  085%=      5-min Rain = 0
KNOR 091230Z 27003KT M05/M08 A3035 RMK A01 T10541076  RH  086%=      5-min Rain = 0
KNOR 091235Z 26003KT M06/M08 A3035 RMK A01 T10551076  RH  086%=      5-min Rain = 0
KNOR 091240Z 26003KT M06/M08 A3035 RMK A01 T10571078  RH  086%=      5-min Rain = 0
KNOR 091245Z 27003KT M06/M08 A3035 RMK A01 T10561076  RH  087%=      5-min Rain = 0
KNOR 091250Z 27003KT M06/M07 A3035 RMK A01 T10551074  RH  087%=      5-min Rain = 0
KNOR 091255Z 28004KT M05/M07 A3036 RMK A01 T10541073  RH  087%=      5-min Rain = 0
KNOR 091300Z 27004KT M06/M08 A3036 RMK A01 T10551075  RH  087%=      5-min Rain = 0
KNOR 091305Z 27004KT M06/M08 A3036 RMK A01 T10561076  RH  087%=      5-min Rain = 0
KNOR 091310Z 27004KT M06/M08 A3036 RMK A01 T10571077  RH  087%=      5-min Rain = 0
KNOR 091315Z 26004KT M06/M08 A3036 RMK A01 T10581078  RH  087%=      5-min Rain = 0
KNOR 091320Z 26004KT M06/M08 A3036 RMK A01 T10581077  RH  087%=      5-min Rain = 0
KNOR 091325Z 26004KT M06/M08 A3036 RMK A01 T10571076  RH  088%=      5-min Rain = 0
KNOR 091330Z 27004KT M06/M07 A3037 RMK A01 T10551074  RH  087%=      5-min Rain = 0
KNOR 091335Z 28005KT M05/M07 A3037 RMK A01 T10541074  RH  087%=      5-min Rain = 0
KNOR 091340Z 28005KT M05/M07 A3037 RMK A01 T10531073  RH  087%=      5-min Rain = 0
KNOR 091345Z 27004KT M05/M07 A3037 RMK A01 T10531073  RH  087%=      5-min Rain = 0
KNOR 091350Z 26004KT M05/M07 A3037 RMK A01 T10531073  RH  087%=      5-min Rain = 0
KNOR 091355Z 24004KT M05/M07 A3037 RMK A01 T10531074  RH  087%=      5-min Rain = 0
KNOR 091400Z 24004KT M05/M07 A3038 RMK A01 T10541074  RH  087%=      5-min Rain = 0
KNOR 091405Z 25005KT M05/M07 A3038 RMK A01 T10511072  RH  087%=      5-min Rain = 0
KNOR 091410Z 25005KT M05/M07 A3038 RMK A01 T10501071  RH  086%=      5-min Rain = 0
KNOR 091415Z 25005KT M05/M07 A3038 RMK A01 T10491070  RH  086%=      5-min Rain = 0
KNOR 091420Z 26005KT M05/M07 A3039 RMK A01 T10471068  RH  086%=      5-min Rain = 0
KNOR 091425Z 26005KT M05/M07 A3039 RMK A01 T10471068  RH  087%=      5-min Rain = 0
KNOR 091430Z 26005KT M05/M07 A3039 RMK A01 T10461066  RH  087%=      5-min Rain = 0
KNOR 091435Z 26005KT M04/M06 A3039 RMK A01 T10431064  RH  087%=      5-min Rain = 0
KNOR 091440Z 26004KT M04/M06 A3039 RMK A01 T10371058  RH  086%=      5-min Rain = 0
KNOR 091445Z 26004KT M03/M06 A3039 RMK A01 T10341057  RH  086%=      5-min Rain = 0
KNOR 091450Z 25004KT M03/M06 A3039 RMK A01 T10321055  RH  085%=      5-min Rain = 0
KNOR 091455Z 26003KT M03/M05 A3039 RMK A01 T10291051  RH  085%=      5-min Rain = 0
KNOR 091500Z 26003KT M03/M05 A3039 RMK A01 T10251047  RH  085%=      5-min Rain = 0
KNOR 091505Z 27003KT M02/M05 A3039 RMK A01 T10231046  RH  085%=      5-min Rain = 0
KNOR 091510Z 27004KT M02/M04 A3039 RMK A01 T10191044  RH  084%=      5-min Rain = 0
KNOR 091515Z 26004KT M02/M05 A3039 RMK A01 T10171045  RH  082%=      5-min Rain = 0
KNOR 091520Z 27004KT M02/M04 A304 RMK A01 T10171043  RH  083%=      5-min Rain = 0
KNOR 091525Z 27004KT M01/M04 A304 RMK A01 T10141040  RH  083%=      5-min Rain = 0
KNOR 091530Z 28004KT M01/M04 A3041 RMK A01 T10111040  RH  082%=      5-min Rain = 0
KNOR 091535Z 28005KT M01/M04 A3041 RMK A01 T10091039  RH  081%=      5-min Rain = 0
KNOR 091540Z 27005KT M01/M04 A3041 RMK A01 T10081037  RH  081%=      5-min Rain = 0
KNOR 091545Z 28004KT M01/M03 A3041 RMK A01 T10051034  RH  081%=      5-min Rain = 0
KNOR 091550Z 29004KT 00/03 A3041 RMK A01 T00-00-30  RH  081%=      5-min Rain = 0
KNOR 091555Z 30004KT 00/M03 A3041 RMK A01 T00031031  RH  079%=      5-min Rain = 0
KNOR 091600Z 30004KT 01/M04 A3041 RMK A01 T00061035  RH  075%=      5-min Rain = 0
KNOR 091605Z 30004KT 01/M04 A3041 RMK A01 T00101036  RH  072%=      5-min Rain = 0
KNOR 091610Z 29004KT 01/M03 A3041 RMK A01 T00121034  RH  072%=      5-min Rain = 0
KNOR 091615Z 31004KT 01/M04 A3042 RMK A01 T00141036  RH  070%=      5-min Rain = 0
KNOR 091620Z 30005KT 02/M04 A3042 RMK A01 T00171037  RH  068%=      5-min Rain = 0
KNOR 091625Z 30004KT 02/M04 A3042 RMK A01 T00211038  RH  066%=      5-min Rain = 0
KNOR 091630Z 31004KT 02/M04 A3042 RMK A01 T00231043  RH  062%=      5-min Rain = 0
KNOR 091635Z 31005KT 03/M05 A3042 RMK A01 T00251049  RH  059%=      5-min Rain = 0
KNOR 091640Z 32005KT 03/M05 A3042 RMK A01 T00281045  RH  059%=      5-min Rain = 0
KNOR 091645Z 33004KT 03/M05 A3042 RMK A01 T00291045  RH  058%=      5-min Rain = 0
KNOR 091650Z 31004KT 03/M05 A3041 RMK A01 T00321046  RH  057%=      5-min Rain = 0
KNOR 091655Z 31004KT 03/M05 A3041 RMK A01 T00341046  RH  056%=      5-min Rain = 0
KNOR 091700Z 32004KT 04/M05 A3041 RMK A01 T00361046  RH  056%=      5-min Rain = 0
KNOR 091705Z 32004KT 04/M05 A3041 RMK A01 T00381047  RH  054%=      5-min Rain = 0
KNOR 091710Z 33004KT 04/M05 A3041 RMK A01 T00391051  RH  053%=      5-min Rain = 0
KNOR 091715Z 31005KT 04/M05 A3041 RMK A01 T00411049  RH  052%=      5-min Rain = 0
KNOR 091720Z 31005KT 04/M05 A304 RMK A01 T00441048  RH  052%=      5-min Rain = 0
KNOR 091725Z 33006KT 04/M05 A304 RMK A01 T00441054  RH  050%=      5-min Rain = 0
KNOR 091730Z 35005KT 05/M05 A304 RMK A01 T00451050  RH  050%=      5-min Rain = 0
KNOR 091735Z 32004KT 05/M04 A304 RMK A01 T00501043  RH  051%=      5-min Rain = 0
KNOR 091740Z 33004KT 05/M06 A304 RMK A01 T00501057  RH  046%=      5-min Rain = 0
KNOR 091745Z 33005KT 05/M06 A3039 RMK A01 T00521056  RH  046%=      5-min Rain = 0
KNOR 091750Z 32004KT 05/M06 A3039 RMK A01 T00541064  RH  043%=      5-min Rain = 0
KNOR 091755Z 32006KT 06/M06 A3039 RMK A01 T00561062  RH  043%=      5-min Rain = 0
KNOR 091800Z 32005KT 06/M06 A3039 RMK A01 T00561064  RH  042%=      5-min Rain = 0
KNOR 091805Z 31005KT 06/M06 A3039 RMK A01 T00581064  RH  042%=      5-min Rain = 0
KNOR 091810Z 31004KT 06/M07 A3039 RMK A01 T00601068  RH  040%=      5-min Rain = 0
KNOR 091815Z 31005KT 06/M07 A3039 RMK A01 T00611068  RH  040%=      5-min Rain = 0
KNOR 091820Z 32004KT 06/M07 A3039 RMK A01 T00611072  RH  038%=      5-min Rain = 0
KNOR 091825Z 31005KT 06/M08 A3038 RMK A01 T00631075  RH  037%=      5-min Rain = 0
KNOR 091830Z 32004KT 07/M07 A3038 RMK A01 T00671074  RH  036%=      5-min Rain = 0
KNOR 091835Z 31004KT 07/M08 A3038 RMK A01 T00671079  RH  035%=      5-min Rain = 0
KNOR 091840Z 29004KT 07/M08 A3037 RMK A01 T00691080  RH  034%=      5-min Rain = 0
KNOR 091845Z 29005KT 07/M08 A3037 RMK A01 T00721077  RH  034%=      5-min Rain = 0
KNOR 091850Z 33003KT 07/M08 A3037 RMK A01 T00731083  RH  033%=      5-min Rain = 0
KNOR 091855Z 31003KT 08/M08 A3036 RMK A01 T00781078  RH  033%=      5-min Rain = 0
KNOR 091900Z 28005KT 08/M09 A3036 RMK A01 T00751086  RH  031%=      5-min Rain = 0
KNOR 091905Z 30004KT 07/M09 A3036 RMK A01 T00731094  RH  030%=      5-min Rain = 0
KNOR 091910Z 33006KT 08/M09 A3036 RMK A01 T00751090  RH  030%=      5-min Rain = 0
KNOR 091915Z 31004KT 08/M09 A3036 RMK A01 T00751092  RH  030%=      5-min Rain = 0
KNOR 091920Z 32004KT 08/M09 A3035 RMK A01 T00771092  RH  029%=      5-min Rain = 0
KNOR 091925Z 01004KT 08/M10 A3035 RMK A01 T00761099  RH  028%=      5-min Rain = 0
KNOR 091930Z 01002KT 08/M10 A3035 RMK A01 T00781099  RH  028%=      5-min Rain = 0
KNOR 091935Z 28003KT 08/M09 A3035 RMK A01 T00811093  RH  028%=      5-min Rain = 0
KNOR 091940Z 21002KT 08/M10 A3035 RMK A01 T00831102  RH  026%=      5-min Rain = 0
KNOR 091945Z 33003KT 09/M10 A3035 RMK A01 T00851103  RH  026%=      5-min Rain = 0
KNOR 091950Z 31005KT 08/M10 A3035 RMK A01 T00841103  RH  026%=      5-min Rain = 0
KNOR 091955Z 31002KT 08/M11 A3035 RMK A01 T00831110  RH  024%=      5-min Rain = 0
KNOR 092000Z 35003KT 09/M10 A3035 RMK A01 T00871098  RH  026%=      5-min Rain = 0
KNOR 092005Z 30003KT 09/M10 A3035 RMK A01 T00881103  RH  025%=      5-min Rain = 0
KNOR 092010Z 32002KT 09/M11 A3034 RMK A01 T00871108  RH  024%=      5-min Rain = 0
KNOR 092015Z 01003KT 09/M11 A3034 RMK A01 T00881107  RH  024%=      5-min Rain = 0
KNOR 092020Z 33003KT 09/M11 A3034 RMK A01 T00881106  RH  024%=      5-min Rain = 0
KNOR 092025Z 35001KT 09/M11 A3034 RMK A01 T00901112  RH  023%=      5-min Rain = 0
KNOR 092030Z 01003KT 09/M10 A3034 RMK A01 T00911104  RH  024%=      5-min Rain = 0
KNOR 092035Z 28001KT 09/M11 A3034 RMK A01 T00931107  RH  023%=      5-min Rain = 0
KNOR 092040Z 29002KT 10/M10 A3033 RMK A01 T00971102  RH  024%=      5-min Rain = 0
KNOR 092045Z 26004KT 10/M10 A3033 RMK A01 T00951104  RH  024%=      5-min Rain = 0
KNOR 092050Z 25002KT 10/M11 A3033 RMK A01 T00961107  RH  023%=      5-min Rain = 0
KNOR 092055Z 28002KT 09/M11 A3033 RMK A01 T00941113  RH  022%=      5-min Rain = 0
KNOR 092100Z 31005KT 09/M11 A3033 RMK A01 T00941111  RH  023%=      5-min Rain = 0
KNOR 092105Z 34003KT 09/M12 A3034 RMK A01 T00911118  RH  022%=      5-min Rain = 0
KNOR 092110Z 35003KT 09/M12 A3033 RMK A01 T00921116  RH  022%=      5-min Rain = 0
KNOR 092115Z 00002KT 09/M12 A3034 RMK A01 T00931119  RH  021%=      5-min Rain = 0
KNOR 092120Z 33004KT 09/M12 A3034 RMK A01 T00941117  RH  021%=      5-min Rain = 0
KNOR 092125Z 32004KT 09/M13 A3034 RMK A01 T00931125  RH  020%=      5-min Rain = 0
KNOR 092130Z 36002KT 10/M13 A3034 RMK A01 T00951125  RH  020%=      5-min Rain = 0
KNOR 092135Z 32003KT 10/M12 A3034 RMK A01 T00961123  RH  020%=      5-min Rain = 0
KNOR 092140Z 34005KT 10/M12 A3034 RMK A01 T00961115  RH  022%=      5-min Rain = 0
KNOR 092145Z 28004KT 10/M11 A3034 RMK A01 T00951114  RH  022%=      5-min Rain = 0
KNOR 092150Z 28002KT 10/M12 A3034 RMK A01 T00971120  RH  021%=      5-min Rain = 0
KNOR 092155Z 30003KT 10/M12 A3034 RMK A01 T00961120  RH  021%=      5-min Rain = 0
KNOR 092200Z 34003KT 10/M12 A3034 RMK A01 T00961116  RH  022%=      5-min Rain = 0
KNOR 092205Z 36001KT 10/M12 A3034 RMK A01 T00961118  RH  021%=      5-min Rain = 0
KNOR 092210Z 30002KT 10/M12 A3034 RMK A01 T00961118  RH  021%=      5-min Rain = 0
KNOR 092215Z 26002KT 10/M12 A3034 RMK A01 T00981117  RH  021%=      5-min Rain = 0
KNOR 092220Z 31002KT 10/M12 A3034 RMK A01 T00971116  RH  021%=      5-min Rain = 0
KNOR 092225Z 28003KT 10/M11 A3034 RMK A01 T00971108  RH  023%=      5-min Rain = 0
KNOR 092230Z 28004KT 09/M11 A3033 RMK A01 T00941107  RH  023%=      5-min Rain = 0
KNOR 092235Z 26002KT 10/M11 A3033 RMK A01 T00951110  RH  023%=      5-min Rain = 0
KNOR 092240Z 27002KT 10/M11 A3033 RMK A01 T00971108  RH  023%=      5-min Rain = 0
KNOR 092245Z 25002KT 10/M11 A3034 RMK A01 T00971107  RH  023%=      5-min Rain = 0
KNOR 092250Z 26004KT 09/M10 A3033 RMK A01 T00931098  RH  025%=      5-min Rain = 0
KNOR 092255Z 25003KT 09/M10 A3033 RMK A01 T00901097  RH  026%=      5-min Rain = 0
KNOR 092300Z 23002KT 09/M10 A3033 RMK A01 T00901096  RH  026%=      5-min Rain = 0
KNOR 092305Z 23003KT 09/M10 A3033 RMK A01 T00891099  RH  026%=      5-min Rain = 0
KNOR 092310Z 24003KT 08/M10 A3033 RMK A01 T00821097  RH  027%=      5-min Rain = 0
KNOR 092315Z 23003KT 08/M10 A3033 RMK A01 T00801095  RH  028%=      5-min Rain = 0
KNOR 092320Z 22003KT 08/M10 A3033 RMK A01 T00781095  RH  029%=      5-min Rain = 0
KNOR 092325Z 21004KT 07/M10 A3033 RMK A01 T00741096  RH  029%=      5-min Rain = 0
KNOR 092330Z 22003KT 07/M10 A3033 RMK A01 T00701097  RH  030%=      5-min Rain = 0
KNOR 092335Z 23003KT 07/M10 A3033 RMK A01 T00681098  RH  030%=      5-min Rain = 0
KNOR 092340Z 23003KT 07/M10 A3033 RMK A01 T00671099  RH  030%=      5-min Rain = 0
KNOR 092345Z 22004KT 07/M10 A3033 RMK A01 T00651098  RH  031%=      5-min Rain = 0
KNOR 092350Z 23004KT 06/M09 A3033 RMK A01 T00561088  RH  035%=      5-min Rain = 0
KNOR 092355Z 22004KT 05/M08 A3033 RMK A01 T00531080  RH  038%=      5-min Rain = 0
KNOR 100000Z 21005KT 05/M08 A3033 RMK A01 T00521077  RH  039%=      5-min Rain = 0
KNOR 100005Z 21005KT 05/M07 A3033 RMK A01 T00491072  RH  042%=      5-min Rain = 0
KNOR 100010Z 21005KT 05/M06 A3034 RMK A01 T00461064  RH  045%=      5-min Rain = 0
KNOR 100015Z 21005KT 04/M06 A3034 RMK A01 T00421060  RH  048%=      5-min Rain = 0
KNOR 100020Z 21005KT 04/M06 A3034 RMK A01 T00361056  RH  051%=      5-min Rain = 0
KNOR 100025Z 22005KT 03/M05 A3034 RMK A01 T00321053  RH  054%=      5-min Rain = 0
KNOR 100030Z 22005KT 03/M05 A3034 RMK A01 T00281053  RH  056%=      5-min Rain = 0
KNOR 100035Z 22005KT 03/M05 A3035 RMK A01 T00271052  RH  057%=      5-min Rain = 0
KNOR 100040Z 21006KT 03/M05 A3035 RMK A01 T00251050  RH  058%=      5-min Rain = 0
KNOR 100045Z 21006KT 02/M05 A3034 RMK A01 T00221049  RH  060%=      5-min Rain = 0
KNOR 100050Z 22006KT 02/M05 A3035 RMK A01 T00201046  RH  062%=      5-min Rain = 0
KNOR 100055Z 22005KT 02/M04 A3035 RMK A01 T00191044  RH  064%=      5-min Rain = 0
KNOR 100100Z 23005KT 02/M04 A3035 RMK A01 T00191040  RH  065%=      5-min Rain = 0
KNOR 100105Z 23006KT 02/M04 A3035 RMK A01 T00201036  RH  067%=      5-min Rain = 0
KNOR 100110Z 23005KT 02/M03 A3035 RMK A01 T00181033  RH  069%=      5-min Rain = 0
KNOR 100115Z 23006KT 02/M03 A3035 RMK A01 T00171031  RH  071%=      5-min Rain = 0
KNOR 100120Z 22006KT 01/M03 A3035 RMK A01 T00141030  RH  073%=      5-min Rain = 0
KNOR 100125Z 22005KT 01/M03 A3036 RMK A01 T00111031  RH  074%=      5-min Rain = 0
KNOR 100130Z 22005KT 01/M03 A3036 RMK A01 T00101030  RH  075%=      5-min Rain = 0
KNOR 100135Z 23006KT 01/M03 A3036 RMK A01 T00081029  RH  077%=      5-min Rain = 0
KNOR 100140Z 23006KT 01/M03 A3036 RMK A01 T00071027  RH  079%=      5-min Rain = 0
KNOR 100145Z 23006KT 01/M03 A3036 RMK A01 T00051027  RH  080%=      5-min Rain = 0
KNOR 100150Z 23006KT 01/M03 A3036 RMK A01 T00051025  RH  081%=      5-min Rain = 0
KNOR 100155Z 23006KT 01/M03 A3036 RMK A01 T00051025  RH  081%=      5-min Rain = 0
KNOR 100200Z 23006KT 00/M03 A3036 RMK A01 T00041025  RH  082%=      5-min Rain = 0
KNOR 100205Z 23006KT 00/M03 A3036 RMK A01 T00031025  RH  083%=      5-min Rain = 0
KNOR 100210Z 23006KT 00/M03 A3036 RMK A01 T00011025  RH  083%=      5-min Rain = 0
KNOR 100215Z 23007KT 00/03 A3036 RMK A01 T00000-26  RH  083%=      5-min Rain = 0
KNOR 100220Z 23007KT M00/M03 A3036 RMK A01 T10011026  RH  084%=      5-min Rain = 0
KNOR 100225Z 24007KT M00/M03 A3036 RMK A01 T10011026  RH  084%=      5-min Rain = 0
KNOR 100230Z 24007KT M00/M03 A3036 RMK A01 T10011027  RH  084%=      5-min Rain = 0
KNOR 100235Z 24007KT M00/M03 A3036 RMK A01 T10011027  RH  084%=      5-min Rain = 0
KNOR 100240Z 24006KT M00/M03 A3037 RMK A01 T10021027  RH  084%=      5-min Rain = 0
KNOR 100245Z 24006KT M00/M03 A3037 RMK A01 T10031028  RH  084%=      5-min Rain = 0
KNOR 100250Z 24007KT M00/M03 A3037 RMK A01 T10041028  RH  085%=      5-min Rain = 0
KNOR 100255Z 24006KT M01/M03 A3037 RMK A01 T10051029  RH  085%=      5-min Rain = 0
KNOR 100300Z 24006KT M01/M03 A3037 RMK A01 T10071030  RH  085%=      5-min Rain = 0
KNOR 100305Z 24007KT M01/M03 A3038 RMK A01 T10091031  RH  086%=      5-min Rain = 0
KNOR 100310Z 24006KT M01/M03 A3037 RMK A01 T10081030  RH  086%=      5-min Rain = 0
KNOR 100315Z 24006KT M01/M03 A3037 RMK A01 T10091030  RH  086%=      5-min Rain = 0
KNOR 100320Z 24006KT M01/M03 A3037 RMK A01 T10091031  RH  087%=      5-min Rain = 0
KNOR 100325Z 23007KT M01/M03 A3037 RMK A01 T10091030  RH  086%=      5-min Rain = 0
KNOR 100330Z 23007KT M01/M03 A3037 RMK A01 T10091030  RH  087%=      5-min Rain = 0
KNOR 100335Z 23006KT M01/M03 A3037 RMK A01 T10091030  RH  086%=      5-min Rain = 0
KNOR 100340Z 23007KT M01/M03 A3037 RMK A01 T10101031  RH  086%=      5-min Rain = 0
KNOR 100345Z 24007KT M01/M03 A3037 RMK A01 T10101032  RH  086%=      5-min Rain = 0
KNOR 100350Z 24007KT M01/M03 A3037 RMK A01 T10091031  RH  086%=      5-min Rain = 0
KNOR 100355Z 23007KT M01/M03 A3037 RMK A01 T10091031  RH  086%=      5-min Rain = 0
KNOR 100400Z 23007KT M01/M03 A3037 RMK A01 T10091031  RH  086%=      5-min Rain = 0
KNOR 100405Z 23007KT M01/M03 A3036 RMK A01 T10101032  RH  086%=      5-min Rain = 0
KNOR 100410Z 23007KT M01/M03 A3036 RMK A01 T10101032  RH  086%=      5-min Rain = 0
KNOR 100415Z 23008KT M01/M03 A3036 RMK A01 T10111032  RH  086%=      5-min Rain = 0
KNOR 100420Z 23007KT M01/M03 A3036 RMK A01 T10111032  RH  086%=      5-min Rain = 0
KNOR 100425Z 23007KT M01/M03 A3036 RMK A01 T10111032  RH  087%=      5-min Rain = 0
KNOR 100430Z 23007KT M01/M03 A3036 RMK A01 T10111032  RH  087%=      5-min Rain = 0
KNOR 100435Z 24007KT M01/M03 A3036 RMK A01 T10111032  RH  087%=      5-min Rain = 0
KNOR 100440Z 24007KT M01/M03 A3037 RMK A01 T10111032  RH  087%=      5-min Rain = 0
KNOR 100445Z 24006KT M01/M03 A3037 RMK A01 T10111032  RH  087%=      5-min Rain = 0
KNOR 100450Z 23006KT M01/M03 A3036 RMK A01 T10121033  RH  087%=      5-min Rain = 0
KNOR 100455Z 24007KT M01/M03 A3037 RMK A01 T10131033  RH  087%=      5-min Rain = 0
KNOR 100500Z 24007KT M01/M03 A3037 RMK A01 T10131033  RH  087%=      5-min Rain = 0
KNOR 100505Z 25007KT M01/M03 A3037 RMK A01 T10141033  RH  088%=      5-min Rain = 0
KNOR 100510Z 25007KT M01/M03 A3037 RMK A01 T10141033  RH  088%=      5-min Rain = 0
KNOR 100515Z 24006KT M02/M04 A3036 RMK A01 T10161035  RH  088%=      5-min Rain = 0
KNOR 100520Z 24006KT M02/M04 A3037 RMK A01 T10171036  RH  088%=      5-min Rain = 0
KNOR 100525Z 24007KT M02/M04 A3037 RMK A01 T10181036  RH  089%=      5-min Rain = 0
KNOR 100530Z 23008KT M02/M04 A3037 RMK A01 T10181035  RH  089%=      5-min Rain = 0
KNOR 100535Z 24007KT M02/M04 A3037 RMK A01 T10181035  RH  089%=      5-min Rain = 0
KNOR 100540Z 24007KT M02/M04 A3036 RMK A01 T10191036  RH  089%=      5-min Rain = 0
KNOR 100545Z 24007KT M02/M04 A3036 RMK A01 T10181035  RH  089%=      5-min Rain = 0
KNOR 100550Z 24008KT M02/M04 A3036 RMK A01 T10181035  RH  089%=      5-min Rain = 0
KNOR 100555Z 24008KT M02/M03 A3036 RMK A01 T10171034  RH  089%=      5-min Rain = 0

Page generated in 0.0226 seconds.